Edenville, Ohio
Current Conditions -  °F | °C
As of 12:22 PM on Thursday 27 Nov 2014 (Local Time) from KMNN Reporting Station
Overcast Overcast  
Wind Chill: 21°   Ceiling: 3100
Heat Index: 31°   Visibility: 9mi
Dew Point: 20°   Wind: 14mph
Humidity: 64%   Direction: 300°WNW
Pressure: 30.18"   Gusts: NA
Location:  40.8054°N, 83.1316°W
Report Text: KMNN 271722Z AUTO 30012KT 9SM SCT025 BKN031 OVC050 M01/M07 A3018 RMK AO2 T10061067 TSNO
Loading
Personal Weather Stations






























Interactive Weather Map New forecast layout! Learn more

10-Day Weather Forecast

Advertisements
Track Severe Weather on mobile